Time;durP1;ratioP1;P1;durP2;ratioP2;P2;SDS_P1;SDS_P2;PMS_P1;PMS_P2;Temp;Humidity;BMP_temperature;BMP_pressure;BME280_temperature;BME280_humidity;BME280_pressure;Samples;Min_cycle;Max_cycle;Signal;HPM_P1;HPM_P2
2022/10/26 00:04:17;;;;;;;12.37;5.73;;;12.60;99.90;;;;;;21080341;28;20472;-75
2022/10/26 00:14:18;;;;;;;10.07;3.90;;;12.30;99.90;;;;;;21080567;28;20062;-75
2022/10/26 00:24:19;;;;;;;8.47;3.80;;;12.20;99.90;;;;;;21079909;28;20039;-75
2022/10/26 00:34:20;;;;;;;10.47;3.83;;;12.30;99.90;;;;;;21079233;28;20024;-75
2022/10/26 00:44:42;;;;;;;11.13;4.33;;;12.30;99.90;;;;;;21078142;28;20032;-75
2022/10/26 00:54:43;;;;;;;;;;;12.10;99.90;;;;;;21079118;28;20020;-75
2022/10/26 01:04:45;;;;;;;9.68;4.10;;;11.80;99.90;;;;;;21076683;28;20395;-75
2022/10/26 01:14:47;;;;;;;10.38;4.90;;;11.30;99.90;;;;;;21045959;28;20440;-75
2022/10/26 01:25:02;;;;;;;5.07;3.00;;;11.30;99.90;;;;;;20991732;28;20103;-76
2022/10/26 01:35:48;;;;;;;12.73;6.82;;;11.60;99.90;;;;;;20991344;28;20306;-75
2022/10/26 01:45:51;;;;;;;10.95;6.55;;;11.60;99.90;;;;;;20954029;28;20041;-75
2022/10/26 01:55:54;;;;;;;14.75;5.07;;;11.80;99.90;;;;;;20990133;28;20048;-75
2022/10/26 02:06:23;;;;;;;6.28;3.38;;;11.80;99.90;;;;;;20989766;28;20045;-75
2022/10/26 02:16:32;;;;;;;5.53;3.47;;;12.00;99.90;;;;;;20989833;28;20070;-75
2022/10/26 02:26:35;;;;;;;7.68;3.72;;;12.10;99.90;;;;;;20978082;28;20036;-76
2022/10/26 02:36:41;;;;;;;13.35;3.83;;;12.00;99.90;;;;;;21004240;28;20525;-76
2022/10/26 02:46:43;;;;;;;11.70;3.67;;;12.00;99.90;;;;;;21001477;28;20475;-76
2022/10/26 02:56:55;;;;;;;9.82;3.97;;;11.80;99.90;;;;;;20984973;28;20033;-75
2022/10/26 03:06:56;;;;;;;11.75;5.22;;;11.70;99.90;;;;;;21002002;28;20090;-76
2022/10/26 03:16:56;;;;;;;8.63;5.83;;;11.80;99.90;;;;;;20985429;28;20036;-75
2022/10/26 03:26:57;;;;;;;13.90;7.87;;;11.90;99.90;;;;;;21002849;28;20060;-76
2022/10/26 03:36:58;;;;;;;8.87;5.40;;;11.80;99.90;;;;;;20977504;28;20033;-76
2022/10/26 03:46:59;;;;;;;14.60;7.17;;;11.90;99.90;;;;;;20977652;28;20107;-78
2022/10/26 03:56:59;;;;;;;16.77;8.43;;;11.90;99.90;;;;;;20948915;28;20158;-77
2022/10/26 04:07:00;;;;;;;25.57;11.00;;;11.90;99.90;;;;;;20993642;28;20032;-78
2022/10/26 04:17:01;;;;;;;21.67;11.17;;;11.90;99.90;;;;;;20991938;28;20025;-78
2022/10/26 04:27:02;;;;;;;21.70;11.80;;;11.90;99.90;;;;;;20992302;28;20028;-77
2022/10/26 04:37:02;;;;;;;26.97;13.33;;;12.00;99.90;;;;;;20953147;28;1165282;-76
2022/10/26 04:47:03;;;;;;;27.87;11.30;;;12.10;99.90;;;;;;20965450;28;20060;-78
2022/10/26 04:57:04;;;;;;;12.20;5.67;;;12.10;99.90;;;;;;20957720;28;20116;-78
2022/10/26 05:07:05;;;;;;;23.87;10.20;;;12.00;99.90;;;;;;20947207;28;20036;-78
2022/10/26 05:17:05;;;;;;;20.00;10.47;;;12.10;99.90;;;;;;20909451;28;20082;-77
2022/10/26 05:27:06;;;;;;;15.90;8.43;;;12.20;99.90;;;;;;20960114;28;20086;-77
2022/10/26 05:37:07;;;;;;;10.90;6.10;;;12.20;99.90;;;;;;20995143;28;20450;-78
2022/10/26 05:47:08;;;;;;;10.43;5.63;;;12.10;99.90;;;;;;20987191;28;20090;-79
2022/10/26 05:57:12;;;;;;;10.90;6.03;;;12.10;99.90;;;;;;20999829;28;20029;-78
2022/10/26 06:07:15;;;;;;;19.38;9.07;;;12.00;99.90;;;;;;20990009;28;20039;-78
2022/10/26 06:17:43;;;;;;;16.25;8.88;;;12.10;99.90;;;;;;20990907;28;20040;-78
2022/10/26 06:27:47;;;;;;;14.95;7.97;;;12.20;99.90;;;;;;20989624;28;20041;-78
2022/10/26 06:37:49;;;;;;;26.20;10.50;;;12.20;99.90;;;;;;20986367;28;20048;-78
2022/10/26 06:48:13;;;;;;;19.63;9.10;;;12.20;99.90;;;;;;21004247;28;20033;-77
2022/10/26 06:58:22;;;;;;;19.42;9.77;;;12.30;99.90;;;;;;20988417;28;20093;-78
2022/10/26 07:08:23;;;;;;;12.93;7.20;;;12.60;99.90;;;;;;20983094;28;20531;-77
2022/10/26 07:18:23;;;;;;;14.33;8.10;;;12.90;99.90;;;;;;20909041;28;20559;-77
2022/10/26 07:28:24;;;;;;;21.57;12.37;;;12.90;99.90;;;;;;20903380;28;20083;-77
2022/10/26 07:38:25;;;;;;;24.87;13.47;;;13.00;99.90;;;;;;20920012;28;20044;-77
2022/10/26 07:48:26;;;;;;;28.20;13.57;;;13.00;99.90;;;;;;20918265;28;20029;-77
2022/10/26 07:58:27;;;;;;;22.33;10.87;;;13.60;99.90;;;;;;20922813;28;20025;-79
2022/10/26 08:08:27;;;;;;;18.77;10.97;;;15.30;99.90;;;;;;20976106;28;20028;-79
2022/10/26 08:18:28;;;;;;;17.80;10.07;;;15.60;99.90;;;;;;20968267;28;20036;-78
2022/10/26 08:28:29;;;;;;;15.73;9.93;;;14.60;99.90;;;;;;20927804;28;20487;-78
2022/10/26 08:38:32;;;;;;;16.15;10.30;;;15.80;99.90;;;;;;20894999;28;20037;-78
2022/10/26 08:48:37;;;;;;;12.20;8.10;;;15.90;99.90;;;;;;20917378;28;20043;-78
2022/10/26 08:58:42;;;;;;;14.30;9.50;;;17.40;99.90;;;;;;20913503;28;20032;-77
2022/10/26 09:09:12;;;;;;;11.27;7.25;;;18.60;99.90;;;;;;20891888;28;20037;-78
2022/10/26 09:19:31;;;;;;;10.98;6.93;;;19.10;99.90;;;;;;20909402;28;20036;-77
2022/10/26 09:29:40;;;;;;;8.75;5.75;;;20.00;99.90;;;;;;20908471;28;20029;-77
2022/10/26 09:40:03;;;;;;;10.40;5.47;;;20.30;99.90;;;;;;20890227;28;20079;-76
2022/10/26 09:50:18;;;;;;;11.27;5.15;;;21.20;99.90;;;;;;20889500;28;20499;-76
2022/10/26 10:00:22;;;;;;;7.00;4.00;;;21.60;99.90;;;;;;20917806;28;20115;-77
2022/10/26 10:10:23;;;;;;;9.05;3.92;;;22.00;99.90;;;;;;20907904;28;20037;-76
2022/10/26 10:20:27;;;;;;;;;;;22.70;99.90;;;;;;20906945;28;20509;-76
2022/10/26 10:30:32;;;;;;;7.93;3.03;;;23.00;99.90;;;;;;20905672;28;19951;-77
2022/10/26 10:40:34;;;;;;;4.22;2.60;;;23.50;99.90;;;;;;20888000;28;20029;-76
2022/10/26 10:50:35;;;;;;;5.95;2.47;;;24.00;99.90;;;;;;20898381;28;20033;-76
2022/10/26 11:00:37;;;;;;;11.95;2.50;;;24.90;99.90;;;;;;20955892;28;20032;-76
2022/10/26 11:10:53;;;;;;;8.75;2.78;;;24.60;99.90;;;;;;20919387;28;20040;-76
2022/10/26 11:21:03;;;;;;;4.88;2.55;;;24.30;99.90;;;;;;20919758;28;20025;-77
2022/10/26 11:31:09;;;;;;;12.00;3.20;;;25.20;99.90;;;;;;20919519;28;20503;-76
2022/10/26 11:41:28;;;;;;;4.55;2.80;;;24.50;99.90;;;;;;20917784;28;20544;-76
2022/10/26 11:51:48;;;;;;;7.28;2.55;;;24.90;99.90;;;;;;20916642;28;20033;-75
2022/10/26 12:01:52;;;;;;;8.57;2.30;;;25.20;99.90;;;;;;20920151;28;20028;-76
2022/10/26 12:12:07;;;;;;;6.60;2.38;;;26.00;99.90;;;;;;20914910;28;20071;-76
2022/10/26 12:22:14;;;;;;;6.28;1.77;;;25.70;99.90;;;;;;20913952;28;20476;-76
2022/10/26 12:32:44;;;;;;;10.18;2.05;;;26.20;99.90;;;;;;20895922;28;20040;-77
2022/10/26 12:42:45;;;;;;;9.63;2.20;;;25.80;99.90;;;;;;20969260;28;20510;-76
2022/10/26 12:52:54;;;;;;;8.47;2.40;;;25.90;99.90;;;;;;20994556;28;20036;-76
2022/10/26 13:02:55;;;;;;;5.07;1.92;;;26.20;99.90;;;;;;20993696;28;20365;-76
2022/10/26 13:12:59;;;;;;;7.13;1.93;;;26.10;99.90;;;;;;20992542;28;20059;-76
2022/10/26 13:23:02;;;;;;;9.02;2.30;;;26.10;99.90;;;;;;20991872;28;20033;-76
2022/10/26 13:33:09;;;;;;;13.57;2.65;;;26.20;99.90;;;;;;20992218;28;20119;-76
2022/10/26 13:43:21;;;;;;;12.55;3.28;;;25.30;99.90;;;;;;20993471;28;20041;-76
2022/10/26 13:53:41;;;;;;;8.52;2.47;;;25.30;99.90;;;;;;20988712;28;20037;-76
2022/10/26 14:03:43;;;;;;;11.25;2.22;;;25.00;99.90;;;;;;20957512;28;20055;-77
2022/10/26 14:13:45;;;;;;;5.95;2.20;;;25.60;99.90;;;;;;20954642;28;20039;-77
2022/10/26 14:23:51;;;;;;;12.38;2.17;;;25.60;99.90;;;;;;20959861;28;20039;-78
2022/10/26 14:33:53;;;;;;;8.15;2.05;;;25.90;99.90;;;;;;21019309;28;20028;-78
2022/10/26 14:43:56;;;;;;;14.25;2.38;;;25.50;99.90;;;;;;20991305;28;20044;-77
2022/10/26 14:54:00;;;;;;;11.68;2.55;;;24.70;99.90;;;;;;21055447;28;20526;-77
2022/10/26 15:04:06;;;;;;;12.40;3.15;;;25.00;99.90;;;;;;21096279;28;20036;-78
2022/10/26 15:14:11;;;;;;;8.43;2.03;;;24.60;99.90;;;;;;21098735;28;20052;-77
2022/10/26 15:24:30;;;;;;;9.27;2.90;;;23.30;99.90;;;;;;21094293;28;20067;-77
2022/10/26 15:34:31;;;;;;;8.10;2.45;;;22.20;99.90;;;;;;21093183;28;20122;-77
2022/10/26 15:44:32;;;;;;;;;;;21.60;99.90;;;;;;21087447;28;20039;-76
2022/10/26 15:54:33;;;;;;;14.87;3.50;;;20.40;99.90;;;;;;21083856;28;20394;-77
2022/10/26 16:04:33;;;;;;;12.80;3.27;;;20.10;99.90;;;;;;21082631;28;20059;-76
2022/10/26 16:14:34;;;;;;;11.23;4.07;;;19.10;99.90;;;;;;21083082;28;20035;-77
2022/10/26 16:24:35;;;;;;;16.03;3.33;;;18.10;99.90;;;;;;21084555;28;20111;-76
2022/10/26 16:34:36;;;;;;;22.60;4.00;;;18.50;99.90;;;;;;21083735;28;20036;-76
2022/10/26 16:44:36;;;;;;;15.83;3.67;;;17.10;99.90;;;;;;21079824;28;20028;-76
2022/10/26 16:54:37;;;;;;;12.90;3.87;;;17.00;99.90;;;;;;21079767;28;20028;-76
2022/10/26 17:04:38;;;;;;;16.80;7.13;;;16.50;99.90;;;;;;21077329;28;20027;-76
2022/10/26 17:14:39;;;;;;;15.63;5.23;;;16.70;99.90;;;;;;20969305;28;20033;-75
2022/10/26 17:24:40;;;;;;;18.30;4.00;;;16.90;99.90;;;;;;20992258;28;20060;-75
2022/10/26 17:34:41;;;;;;;16.07;3.67;;;15.80;99.90;;;;;;20939240;28;20032;-75
2022/10/26 17:44:42;;;;;;;10.13;3.95;;;16.00;99.90;;;;;;20913752;28;20050;-75
2022/10/26 17:54:43;;;;;;;11.43;4.07;;;15.80;99.90;;;;;;20921571;28;20091;-77
2022/10/26 18:04:44;;;;;;;12.27;3.63;;;15.50;99.90;;;;;;20937830;28;20051;-76
2022/10/26 18:14:45;;;;;;;18.30;4.30;;;15.10;99.90;;;;;;21021675;28;20047;-78
2022/10/26 18:24:46;;;;;;;8.07;3.10;;;14.50;99.90;;;;;;21047147;28;20025;-75
2022/10/26 18:34:47;;;;;;;8.37;2.83;;;14.40;99.90;;;;;;20997521;28;20032;-77
2022/10/26 18:44:47;;;;;;;8.03;3.40;;;14.50;99.90;;;;;;20991609;28;20040;-77
2022/10/26 18:54:52;;;;;;;21.37;3.80;;;14.00;99.90;;;;;;20989849;28;20036;-77
2022/10/26 19:04:57;;;;;;;7.40;3.90;;;13.60;99.90;;;;;;21033819;28;20364;-77
2022/10/26 19:14:58;;;;;;;13.43;3.67;;;13.90;99.90;;;;;;21014037;28;20036;-77
2022/10/26 19:24:59;;;;;;;6.93;4.00;;;14.00;99.90;;;;;;20986578;28;20060;-76
2022/10/26 19:34:59;;;;;;;11.27;3.97;;;13.80;99.90;;;;;;21007247;28;20068;-77
2022/10/26 19:45:00;;;;;;;10.00;3.17;;;14.10;99.90;;;;;;21007155;28;20387;-77
2022/10/26 19:55:01;;;;;;;10.73;4.33;;;13.10;99.90;;;;;;21009508;28;20078;-78
2022/10/26 20:05:02;;;;;;;9.53;3.77;;;13.30;99.90;;;;;;21035854;28;20032;-78
2022/10/26 20:15:03;;;;;;;16.47;4.07;;;13.60;99.90;;;;;;21007095;28;20043;-78
2022/10/26 20:25:04;;;;;;;8.43;3.50;;;13.70;99.90;;;;;;20997338;28;20531;-76
2022/10/26 20:35:05;;;;;;;11.97;3.33;;;13.70;99.90;;;;;;20998534;28;20067;-76
2022/10/26 20:45:14;;;;;;;9.63;3.30;;;13.60;99.90;;;;;;20995377;28;20491;-76
2022/10/26 20:55:30;;;;;;;11.82;3.15;;;13.50;99.90;;;;;;21049539;28;20043;-77
2022/10/26 21:05:31;;;;;;;12.38;3.67;;;13.50;99.90;;;;;;21012249;28;20419;-76
2022/10/26 21:15:34;;;;;;;10.93;5.80;;;13.40;99.90;;;;;;20958073;28;20040;-76
2022/10/26 21:25:36;;;;;;;14.90;5.43;;;13.30;99.90;;;;;;20991808;28;20116;-76
2022/10/26 21:35:36;;;;;;;15.55;4.85;;;13.30;99.90;;;;;;20990609;28;20028;-77
2022/10/26 21:45:37;;;;;;;19.77;5.17;;;12.90;99.90;;;;;;20991319;28;20066;-76
2022/10/26 21:55:38;;;;;;;13.13;4.73;;;12.70;99.90;;;;;;20972643;28;20478;-76
2022/10/26 22:05:39;;;;;;;11.83;3.83;;;12.60;99.90;;;;;;21032704;28;20226;-76
2022/10/26 22:15:39;;;;;;;7.03;3.10;;;12.60;99.90;;;;;;20971714;28;20459;-77
2022/10/26 22:25:40;;;;;;;9.07;3.30;;;12.60;99.90;;;;;;20969832;28;20040;-76
2022/10/26 22:35:42;;;;;;;13.30;3.57;;;12.60;99.90;;;;;;20973671;28;20060;-76
2022/10/26 22:45:42;;;;;;;;;;;12.60;99.90;;;;;;20980438;28;20039;-76
2022/10/26 22:55:44;;;;;;;22.67;4.70;;;12.30;99.90;;;;;;21003767;28;19956;-76
2022/10/26 23:05:48;;;;;;;15.13;4.38;;;12.40;99.90;;;;;;21003174;28;20123;-76
2022/10/26 23:15:48;;;;;;;7.50;3.22;;;12.40;99.90;;;;;;21002055;28;20032;-76
2022/10/26 23:25:49;;;;;;;11.40;3.50;;;12.40;99.90;;;;;;21001604;28;20390;-76
2022/10/26 23:35:51;;;;;;;6.43;2.90;;;12.30;99.90;;;;;;21000852;28;20040;-76
2022/10/26 23:45:52;;;;;;;;;;;12.20;99.90;;;;;;21000765;28;20039;-75
2022/10/26 23:55:53;;;;;;;13.05;3.65;;;12.00;99.90;;;;;;20999516;28;20278;-76
